Terminal Aerodrome Forecast
Issued by NWS

Home | Current Version | Previous Version | Text Only | Print | Product List | Glossary Off
Versions: 1 2 3 4 5 6 7 8 9 10 11 12 13 14 15 16 17 18

000
FTUS43 KICT 182300
TAFSLN
TAF
KSLN 182330Z 1900/1924 12004KT P6SM OVC250
     FM190500 16004KT P6SM OVC150
     FM191400 19009KT P6SM OVC150=

USA.gov is the U.S. government's official web portal to all federal, state and local government web resources and services.